sensor_id;sensor_type;location;lat;lon;timestamp;pressure;altitude;pressure_sealevel;temperature;humidity
50592;BME280;36548;50.506;30.834;2022-07-06T00:00:16;99849.26;;;25.64;48.06
50592;BME280;36548;50.506;30.834;2022-07-06T00:01:27;99847.59;;;25.63;48.07
50592;BME280;36548;50.506;30.834;2022-07-06T00:03:02;99841.69;;;25.73;48.12
50592;BME280;36548;50.506;30.834;2022-07-06T00:04:15;99845.05;;;25.61;48.16
50592;BME280;36548;50.506;30.834;2022-07-06T00:05:27;99837.64;;;25.62;48.08
50592;BME280;36548;50.506;30.834;2022-07-06T00:06:43;99839.98;;;25.72;48.11
50592;BME280;36548;50.506;30.834;2022-07-06T00:07:53;99834.89;;;25.62;48.09
50592;BME280;36548;50.506;30.834;2022-07-06T00:09:09;99835.53;;;25.70;48.15
50592;BME280;36548;50.506;30.834;2022-07-06T00:10:21;99838.90;;;25.59;48.12
50592;BME280;36548;50.506;30.834;2022-07-06T00:11:50;99841.44;;;25.61;48.03
50592;BME280;36548;50.506;30.834;2022-07-06T00:13:01;99839.73;;;25.60;48.02
50592;BME280;36548;50.506;30.834;2022-07-06T00:14:12;99842.48;;;25.60;47.98
50592;BME280;36548;50.506;30.834;2022-07-06T00:15:27;99837.66;;;25.68;48.03
50592;BME280;36548;50.506;30.834;2022-07-06T00:16:39;99841.02;;;25.57;48.12
50592;BME280;36548;50.506;30.834;2022-07-06T00:17:54;99842.29;;;25.68;48.15
50592;BME280;36548;50.506;30.834;2022-07-06T00:19:05;99846.52;;;25.57;48.19
50592;BME280;36548;50.506;30.834;2022-07-06T00:20:34;99844.61;;;25.58;48.15
50592;BME280;36548;50.506;30.834;2022-07-06T00:21:44;99843.11;;;25.55;48.26
50592;BME280;36548;50.506;30.834;2022-07-06T00:23:01;99829.19;;;25.63;48.28
50592;BME280;36548;50.506;30.834;2022-07-06T00:24:13;99829.80;;;25.52;48.35
50592;BME280;36548;50.506;30.834;2022-07-06T00:25:23;99828.96;;;25.51;48.38
50592;BME280;36548;50.506;30.834;2022-07-06T00:26:39;99827.70;;;25.61;48.47
50592;BME280;36548;50.506;30.834;2022-07-06T00:27:48;99836.11;;;25.46;48.66
50592;BME280;36548;50.506;30.834;2022-07-06T00:28:58;99826.19;;;25.45;48.61
50592;BME280;36548;50.506;30.834;2022-07-06T00:30:09;99827.23;;;25.44;48.67
50592;BME280;36548;50.506;30.834;2022-07-06T00:31:25;99815.84;;;25.53;48.84
50592;BME280;36548;50.506;30.834;2022-07-06T00:32:34;99829.98;;;25.44;48.71
50592;BME280;36548;50.506;30.834;2022-07-06T00:33:44;99824.48;;;25.44;48.67
50592;BME280;36548;50.506;30.834;2022-07-06T00:35:00;99825.13;;;25.52;48.76
50592;BME280;36548;50.506;30.834;2022-07-06T00:36:10;99821.08;;;25.42;48.69
50592;BME280;36548;50.506;30.834;2022-07-06T00:37:27;99816.05;;;25.52;48.77
50592;BME280;36548;50.506;30.834;2022-07-06T00:38:39;99836.11;;;25.39;48.76
50592;BME280;36548;50.506;30.834;2022-07-06T00:40:08;99833.36;;;25.39;48.74
50592;BME280;36548;50.506;30.834;2022-07-06T00:41:24;99829.56;;;25.47;48.86
50592;BME280;36548;50.506;30.834;2022-07-06T00:42:42;99832.08;;;25.35;48.85
50592;BME280;36548;50.506;30.834;2022-07-06T00:43:58;99828.49;;;25.41;49.10
50592;BME280;36548;50.506;30.834;2022-07-06T00:45:12;99839.84;;;25.31;49.03
50592;BME280;36548;50.506;30.834;2022-07-06T00:46:41;99829.69;;;25.32;49.07
50592;BME280;36548;50.506;30.834;2022-07-06T00:47:58;99828.28;;;25.43;49.08
50592;BME280;36548;50.506;30.834;2022-07-06T00:49:09;99830.59;;;25.32;49.08
50592;BME280;36548;50.506;30.834;2022-07-06T00:50:26;99828.28;;;25.43;49.16
50592;BME280;36548;50.506;30.834;2022-07-06T00:51:47;99831.60;;;25.31;49.21
50592;BME280;36548;50.506;30.834;2022-07-06T00:53:01;99829.06;;;25.30;49.31
50592;BME280;36548;50.506;30.834;2022-07-06T00:54:11;99830.98;;;25.29;49.38
50592;BME280;36548;50.506;30.834;2022-07-06T00:55:25;99832.02;;;25.28;49.43
50592;BME280;36548;50.506;30.834;2022-07-06T00:56:36;99833.72;;;25.29;49.47
50592;BME280;36548;50.506;30.834;2022-07-06T00:57:46;99835.39;;;25.30;49.36
50592;BME280;36548;50.506;30.834;2022-07-06T00:58:56;99832.64;;;25.30;49.45
50592;BME280;36548;50.506;30.834;2022-07-06T01:00:10;99829.06;;;25.30;49.46
50592;BME280;36548;50.506;30.834;2022-07-06T01:01:20;99833.72;;;25.29;49.49
50592;BME280;36548;50.506;30.834;2022-07-06T01:02:33;99830.11;;;25.29;49.50
50592;BME280;36548;50.506;30.834;2022-07-06T01:03:44;99828.41;;;25.28;49.53
50592;BME280;36548;50.506;30.834;2022-07-06T01:04:55;99833.06;;;25.27;49.50
50592;BME280;36548;50.506;30.834;2022-07-06T01:06:12;99836.50;;;25.36;49.56
50592;BME280;36548;50.506;30.834;2022-07-06T01:07:21;99832.61;;;25.24;49.70
50592;BME280;36548;50.506;30.834;2022-07-06T01:08:33;99834.73;;;25.22;49.67
50592;BME280;36548;50.506;30.834;2022-07-06T01:09:46;99830.50;;;25.19;49.74
50592;BME280;36548;50.506;30.834;2022-07-06T01:10:55;99834.28;;;25.18;49.79
50592;BME280;36548;50.506;30.834;2022-07-06T01:12:07;99829.00;;;25.16;49.84
50592;BME280;36548;50.506;30.834;2022-07-06T01:13:26;99827.78;;;25.26;49.89
50592;BME280;36548;50.506;30.834;2022-07-06T01:14:37;99833.21;;;25.12;49.93
50592;BME280;36548;50.506;30.834;2022-07-06T01:15:48;99832.79;;;25.09;50.00
50592;BME280;36548;50.506;30.834;2022-07-06T01:17:00;99831.09;;;25.08;50.10
50592;BME280;36548;50.506;30.834;2022-07-06T01:18:11;99829.38;;;25.07;50.15
50592;BME280;36548;50.506;30.834;2022-07-06T01:19:23;99828.76;;;25.05;50.16
50592;BME280;36548;50.506;30.834;2022-07-06T01:20:34;99835.30;;;25.04;50.19
50592;BME280;36548;50.506;30.834;2022-07-06T01:21:45;99831.05;;;25.01;50.27
50592;BME280;36548;50.506;30.834;2022-07-06T01:23:00;99833.80;;;25.01;50.22
50592;BME280;36548;50.506;30.834;2022-07-06T01:24:10;99835.70;;;25.00;50.24
50592;BME280;36548;50.506;30.834;2022-07-06T01:25:27;99837.41;;;25.08;50.30
50592;BME280;36548;50.506;30.834;2022-07-06T01:26:37;99835.05;;;24.98;50.25
50592;BME280;36548;50.506;30.834;2022-07-06T01:27:49;99839.05;;;24.96;50.26
50592;BME280;36548;50.506;30.834;2022-07-06T01:28:59;99841.16;;;24.94;50.36
50592;BME280;36548;50.506;30.834;2022-07-06T01:30:18;99830.01;;;25.02;50.47
50592;BME280;36548;50.506;30.834;2022-07-06T01:31:30;99836.92;;;24.91;50.59
50592;BME280;36548;50.506;30.834;2022-07-06T01:32:40;99829.52;;;24.92;50.43
50592;BME280;36548;50.506;30.834;2022-07-06T01:33:52;99829.73;;;24.90;50.48
50592;BME280;36548;50.506;30.834;2022-07-06T01:35:04;99834.59;;;24.88;50.48
50592;BME280;36548;50.506;30.834;2022-07-06T01:36:21;99830.81;;;24.96;50.54
50592;BME280;36548;50.506;30.834;2022-07-06T01:37:33;99832.25;;;24.85;50.63
50592;BME280;36548;50.506;30.834;2022-07-06T01:38:50;99829.13;;;24.95;50.59
50592;BME280;36548;50.506;30.834;2022-07-06T01:40:03;99833.50;;;24.82;50.64
50592;BME280;36548;50.506;30.834;2022-07-06T01:41:32;99842.78;;;24.81;50.66
50592;BME280;36548;50.506;30.834;2022-07-06T01:42:47;99831.63;;;24.90;50.66
50592;BME280;36548;50.506;30.834;2022-07-06T01:43:57;99830.51;;;24.77;50.69
50592;BME280;36548;50.506;30.834;2022-07-06T01:45:09;99829.02;;;24.75;50.79
50592;BME280;36548;50.506;30.834;2022-07-06T01:46:22;99828.59;;;24.71;50.96
50592;BME280;36548;50.506;30.834;2022-07-06T01:47:33;99838.70;;;24.71;50.95
50592;BME280;36548;50.506;30.834;2022-07-06T01:48:45;99831.53;;;24.70;50.91
50592;BME280;36548;50.506;30.834;2022-07-06T01:50:01;99828.60;;;24.78;51.06
50592;BME280;36548;50.506;30.834;2022-07-06T01:51:15;99840.15;;;24.66;51.02
50592;BME280;36548;50.506;30.834;2022-07-06T01:52:31;99832.42;;;24.77;51.07
50592;BME280;36548;50.506;30.834;2022-07-06T01:53:43;99837.81;;;24.63;51.07
50592;BME280;36548;50.506;30.834;2022-07-06T01:55:11;99836.11;;;24.62;51.06
50592;BME280;36548;50.506;30.834;2022-07-06T01:56:24;99835.45;;;24.60;51.18
50592;BME280;36548;50.506;30.834;2022-07-06T01:57:43;99824.14;;;24.70;51.13
50592;BME280;36548;50.506;30.834;2022-07-06T01:59:01;99837.53;;;24.58;51.30
50592;BME280;36548;50.506;30.834;2022-07-06T02:00:11;99840.94;;;24.60;51.10
50592;BME280;36548;50.506;30.834;2022-07-06T02:01:28;99832.38;;;24.70;51.16
50592;BME280;36548;50.506;30.834;2022-07-06T02:02:38;99836.69;;;24.58;51.20
50592;BME280;36548;50.506;30.834;2022-07-06T02:03:55;99834.45;;;24.68;51.16
50592;BME280;36548;50.506;30.834;2022-07-06T02:05:06;99836.90;;;24.56;51.20
50592;BME280;36548;50.506;30.834;2022-07-06T02:06:29;99826.00;;;24.63;51.29
50592;BME280;36548;50.506;30.834;2022-07-06T02:07:39;99830.95;;;24.53;51.35
50592;BME280;36548;50.506;30.834;2022-07-06T02:08:50;99830.32;;;24.50;51.30
50592;BME280;36548;50.506;30.834;2022-07-06T02:10:01;99835.81;;;24.50;51.33
50592;BME280;36548;50.506;30.834;2022-07-06T02:11:11;99837.05;;;24.48;51.37
50592;BME280;36548;50.506;30.834;2022-07-06T02:12:27;99831.00;;;24.59;51.39
50592;BME280;36548;50.506;30.834;2022-07-06T02:13:37;99834.52;;;24.46;51.34
50592;BME280;36548;50.506;30.834;2022-07-06T02:14:54;99834.16;;;24.56;51.47
50592;BME280;36548;50.506;30.834;2022-07-06T02:16:04;99839.13;;;24.46;51.40
50592;BME280;36548;50.506;30.834;2022-07-06T02:17:20;99829.70;;;24.55;51.49
50592;BME280;36548;50.506;30.834;2022-07-06T02:18:31;99834.72;;;24.45;51.45
50592;BME280;36548;50.506;30.834;2022-07-06T02:19:58;99837.45;;;24.45;51.48
50592;BME280;36548;50.506;30.834;2022-07-06T02:21:10;99838.50;;;24.44;51.51
50592;BME280;36548;50.506;30.834;2022-07-06T02:22:26;99833.32;;;24.56;51.51
50592;BME280;36548;50.506;30.834;2022-07-06T02:23:37;99841.70;;;24.47;51.46
50592;BME280;36548;50.506;30.834;2022-07-06T02:24:49;99841.70;;;24.47;51.50
50592;BME280;36548;50.506;30.834;2022-07-06T02:26:06;99831.84;;;24.60;51.46
50592;BME280;36548;50.506;30.834;2022-07-06T02:27:16;99837.52;;;24.51;51.50
50592;BME280;36548;50.506;30.834;2022-07-06T02:28:27;99843.42;;;24.55;51.37
50592;BME280;36548;50.506;30.834;2022-07-06T02:29:45;99825.39;;;24.67;51.33
50592;BME280;36548;50.506;30.834;2022-07-06T02:30:56;99841.14;;;24.59;51.24
50592;BME280;36548;50.506;30.834;2022-07-06T02:32:12;99830.47;;;24.71;51.26
50592;BME280;36548;50.506;30.834;2022-07-06T02:33:25;99836.31;;;24.61;51.31
50592;BME280;36548;50.506;30.834;2022-07-06T02:34:52;99837.81;;;24.63;51.23
50592;BME280;36548;50.506;30.834;2022-07-06T02:36:02;99827.50;;;24.65;51.23
50592;BME280;36548;50.506;30.834;2022-07-06T02:37:15;99838.06;;;24.68;51.17
50592;BME280;36548;50.506;30.834;2022-07-06T02:38:28;99818.45;;;24.72;51.06
50592;BME280;36548;50.506;30.834;2022-07-06T02:39:39;99827.97;;;24.76;50.94
50592;BME280;36548;50.506;30.834;2022-07-06T02:40:54;99814.12;;;24.91;50.88
50592;BME280;36548;50.506;30.834;2022-07-06T02:42:07;99818.73;;;24.83;50.86
50592;BME280;36548;50.506;30.834;2022-07-06T02:43:23;99821.32;;;24.98;50.78
50592;BME280;36548;50.506;30.834;2022-07-06T02:44:37;99818.36;;;24.93;50.57
50592;BME280;36548;50.506;30.834;2022-07-06T02:46:05;99820.69;;;24.96;50.49
50592;BME280;36548;50.506;30.834;2022-07-06T02:47:16;99816.70;;;24.99;50.43
50592;BME280;36548;50.506;30.834;2022-07-06T02:48:26;99827.05;;;25.04;50.25
50592;BME280;36548;50.506;30.834;2022-07-06T02:49:36;99817.98;;;25.03;50.25
50592;BME280;36548;50.506;30.834;2022-07-06T02:50:47;99819.48;;;25.06;50.21
50592;BME280;36548;50.506;30.834;2022-07-06T02:52:05;99818.67;;;25.18;50.16
50592;BME280;36548;50.506;30.834;2022-07-06T02:53:17;99819.06;;;25.09;50.13
50592;BME280;36548;50.506;30.834;2022-07-06T02:54:35;99818.88;;;25.24;50.07
50592;BME280;36548;50.506;30.834;2022-07-06T02:55:45;99815.48;;;25.15;50.06
50592;BME280;36548;50.506;30.834;2022-07-06T02:56:55;99821.42;;;25.18;50.01
50592;BME280;36548;50.506;30.834;2022-07-06T02:58:06;99818.05;;;25.23;49.98
50592;BME280;36548;50.506;30.834;2022-07-06T02:59:16;99821.03;;;25.28;49.86
50592;BME280;36548;50.506;30.834;2022-07-06T03:00:28;99818.34;;;25.35;49.72
50592;BME280;36548;50.506;30.834;2022-07-06T03:01:45;99818.80;;;25.52;49.48
50592;BME280;36548;50.506;30.834;2022-07-06T03:02:56;99819.00;;;25.44;49.40
50592;BME280;36548;50.506;30.834;2022-07-06T03:04:06;99812.24;;;25.46;49.37
50592;BME280;36548;50.506;30.834;2022-07-06T03:05:17;99816.69;;;25.47;49.42
50592;BME280;36548;50.506;30.834;2022-07-06T03:06:27;99821.55;;;25.52;49.27
50592;BME280;36548;50.506;30.834;2022-07-06T03:07:37;99819.04;;;25.57;49.42
50592;BME280;36548;50.506;30.834;2022-07-06T03:08:52;99804.88;;;25.74;49.27
50592;BME280;36548;50.506;30.834;2022-07-06T03:10:04;99819.05;;;25.70;49.07
50592;BME280;36548;50.506;30.834;2022-07-06T03:11:19;99807.44;;;25.89;49.03
50592;BME280;36548;50.506;30.834;2022-07-06T03:12:30;99816.94;;;25.86;48.90
50592;BME280;36548;50.506;30.834;2022-07-06T03:13:57;99811.45;;;25.93;48.80
50592;BME280;36548;50.506;30.834;2022-07-06T03:15:08;99807.48;;;26.02;48.44
50592;BME280;36548;50.506;30.834;2022-07-06T03:16:28;99808.33;;;26.23;48.29
50592;BME280;36548;50.506;30.834;2022-07-06T03:17:39;99809.81;;;26.18;48.15
50592;BME280;36548;50.506;30.834;2022-07-06T03:18:58;99803.87;;;26.35;48.04
50592;BME280;36548;50.506;30.834;2022-07-06T03:20:10;99812.75;;;26.30;47.79
50592;BME280;36548;50.506;30.834;2022-07-06T03:21:20;99816.98;;;26.33;47.76
50592;BME280;36548;50.506;30.834;2022-07-06T03:22:30;99811.05;;;26.36;47.67
50592;BME280;36548;50.506;30.834;2022-07-06T03:23:41;99813.39;;;26.39;47.60
50592;BME280;36548;50.506;30.834;2022-07-06T03:24:51;99816.77;;;26.41;47.53
50592;BME280;36548;50.506;30.834;2022-07-06T03:26:07;99818.02;;;26.59;47.35
50592;BME280;36548;50.506;30.834;2022-07-06T03:27:20;99816.32;;;26.51;47.25
50592;BME280;36548;50.506;30.834;2022-07-06T03:28:36;99815.44;;;26.64;47.31
50592;BME280;36548;50.506;30.834;2022-07-06T03:29:47;99812.73;;;26.57;47.29
50592;BME280;36548;50.506;30.834;2022-07-06T03:31:15;99823.52;;;26.59;47.09
50592;BME280;36548;50.506;30.834;2022-07-06T03:32:27;99826.48;;;26.57;47.19
50592;BME280;36548;50.506;30.834;2022-07-06T03:33:46;99820.13;;;26.70;47.24
50592;BME280;36548;50.506;30.834;2022-07-06T03:35:00;99813.99;;;26.61;47.20
50592;BME280;36548;50.506;30.834;2022-07-06T03:36:15;99812.08;;;26.75;47.03
50592;BME280;36548;50.506;30.834;2022-07-06T03:37:25;99823.30;;;26.67;47.03
50592;BME280;36548;50.506;30.834;2022-07-06T03:38:52;99823.30;;;26.67;47.05
50592;BME280;36548;50.506;30.834;2022-07-06T03:40:08;99824.75;;;26.83;47.07
50592;BME280;36548;50.506;30.834;2022-07-06T03:41:18;99821.79;;;26.78;47.04
50592;BME280;36548;50.506;30.834;2022-07-06T03:42:33;99816.25;;;26.91;46.79
50592;BME280;36548;50.506;30.834;2022-07-06T03:43:43;99817.35;;;26.83;46.89
50592;BME280;36548;50.506;30.834;2022-07-06T03:45:11;99820.92;;;26.91;46.88
50592;BME280;36548;50.506;30.834;2022-07-06T03:46:23;99815.40;;;26.97;46.72
50592;BME280;36548;50.506;30.834;2022-07-06T03:47:34;99814.52;;;27.03;46.70
50592;BME280;36548;50.506;30.834;2022-07-06T03:48:44;99818.08;;;27.11;46.50
50592;BME280;36548;50.506;30.834;2022-07-06T03:49:55;99816.36;;;27.16;46.32
50592;BME280;36548;50.506;30.834;2022-07-06T03:51:07;99823.55;;;27.24;46.34
50592;BME280;36548;50.506;30.834;2022-07-06T03:52:16;99822.23;;;27.33;46.12
50592;BME280;36548;50.506;30.834;2022-07-06T03:53:28;99820.31;;;27.41;45.92
50592;BME280;36548;50.506;30.834;2022-07-06T03:54:39;99828.10;;;27.50;45.84
50592;BME280;36548;50.506;30.834;2022-07-06T03:55:54;99816.06;;;27.77;45.57
50592;BME280;36548;50.506;30.834;2022-07-06T03:57:23;99822.64;;;27.76;45.28
50592;BME280;36548;50.506;30.834;2022-07-06T03:58:41;99818.04;;;28.01;45.03
50592;BME280;36548;50.506;30.834;2022-07-06T03:59:50;99822.46;;;28.02;44.89
50592;BME280;36548;50.506;30.834;2022-07-06T04:01:27;99823.88;;;28.12;44.60
50592;BME280;36548;50.506;30.834;2022-07-06T04:02:43;99816.05;;;28.34;44.30
50592;BME280;36548;50.506;30.834;2022-07-06T04:03:55;99823.32;;;28.28;44.12
50592;BME280;36548;50.506;30.834;2022-07-06T04:05:10;99813.23;;;28.40;44.06
50592;BME280;36548;50.506;30.834;2022-07-06T04:06:22;99817.75;;;28.35;43.99
50592;BME280;36548;50.506;30.834;2022-07-06T04:07:50;99815.12;;;28.40;43.90
50592;BME280;36548;50.506;30.834;2022-07-06T04:09:03;99822.05;;;28.49;43.81
50592;BME280;36548;50.506;30.834;2022-07-06T04:10:19;99818.97;;;28.64;43.68
50592;BME280;36548;50.506;30.834;2022-07-06T04:11:32;99819.23;;;28.56;43.78
50592;BME280;36548;50.506;30.834;2022-07-06T04:12:47;99810.81;;;28.69;43.78
50592;BME280;36548;50.506;30.834;2022-07-06T04:13:59;99812.14;;;28.67;43.67
50592;BME280;36548;50.506;30.834;2022-07-06T04:15:26;99813.98;;;28.73;43.38
50592;BME280;36548;50.506;30.834;2022-07-06T04:16:38;99816.03;;;28.78;43.54
50592;BME280;36548;50.506;30.834;2022-07-06T04:17:48;99812.97;;;28.86;43.45
50592;BME280;36548;50.506;30.834;2022-07-06T04:19:09;99807.61;;;28.91;43.26
50592;BME280;36548;50.506;30.834;2022-07-06T04:20:24;99808.59;;;28.97;43.10
50592;BME280;36548;50.506;30.834;2022-07-06T04:21:37;99807.06;;;29.01;43.32
50592;BME280;36548;50.506;30.834;2022-07-06T04:22:52;99802.21;;;29.15;43.11
50592;BME280;36548;50.506;30.834;2022-07-06T04:24:04;99802.92;;;29.10;43.01
50592;BME280;36548;50.506;30.834;2022-07-06T04:25:15;99805.36;;;29.18;42.89
50592;BME280;36548;50.506;30.834;2022-07-06T04:26:27;99803.37;;;29.25;42.75
50592;BME280;36548;50.506;30.834;2022-07-06T04:27:43;99794.20;;;29.44;42.75
50592;BME280;36548;50.506;30.834;2022-07-06T04:28:55;99801.88;;;29.41;42.54
50592;BME280;36548;50.506;30.834;2022-07-06T04:30:05;99805.17;;;29.50;42.66
50592;BME280;36548;50.506;30.834;2022-07-06T04:31:23;99793.80;;;29.70;42.49
50592;BME280;36548;50.506;30.834;2022-07-06T04:32:35;99798.97;;;29.67;42.38
50592;BME280;36548;50.506;30.834;2022-07-06T04:33:45;99801.27;;;29.70;42.25
50592;BME280;36548;50.506;30.834;2022-07-06T04:34:56;99798.16;;;29.78;42.35
50592;BME280;36548;50.506;30.834;2022-07-06T04:36:06;99792.55;;;29.85;42.18
50592;BME280;36548;50.506;30.834;2022-07-06T04:37:22;99789.55;;;29.98;42.20
50592;BME280;36548;50.506;30.834;2022-07-06T04:38:32;99789.20;;;29.95;42.25
50592;BME280;36548;50.506;30.834;2022-07-06T04:39:57;99782.48;;;30.14;42.23
50592;BME280;36548;50.506;30.834;2022-07-06T04:41:07;99796.91;;;30.16;42.12
50592;BME280;36548;50.506;30.834;2022-07-06T04:42:17;99786.10;;;30.26;41.93
50592;BME280;36548;50.506;30.834;2022-07-06T04:43:45;99782.73;;;30.36;41.16
50592;BME280;36548;50.506;30.834;2022-07-06T04:45:03;99784.31;;;30.56;40.97
50592;BME280;36548;50.506;30.834;2022-07-06T04:46:15;99784.42;;;30.49;41.06
50592;BME280;36548;50.506;30.834;2022-07-06T04:47:30;99781.25;;;30.69;40.87
50592;BME280;36548;50.506;30.834;2022-07-06T04:48:40;99780.30;;;30.64;40.90
50592;BME280;36548;50.506;30.834;2022-07-06T04:50:10;99779.69;;;30.73;40.78
50592;BME280;36548;50.506;30.834;2022-07-06T04:51:26;99780.23;;;30.99;40.22
50592;BME280;36548;50.506;30.834;2022-07-06T04:52:36;99776.02;;;30.97;39.90
50592;BME280;36548;50.506;30.834;2022-07-06T04:53:47;99778.94;;;31.02;39.82
50592;BME280;36548;50.506;30.834;2022-07-06T04:54:57;99778.05;;;31.13;39.88
50592;BME280;36548;50.506;30.834;2022-07-06T04:56:07;99779.94;;;31.24;39.48
50592;BME280;36548;50.506;30.834;2022-07-06T04:57:18;99779.89;;;31.36;39.59
50592;BME280;36548;50.506;30.834;2022-07-06T04:58:28;99779.24;;;31.46;39.15
50592;BME280;36548;50.506;30.834;2022-07-06T04:59:37;99772.44;;;31.54;38.86
50592;BME280;36548;50.506;30.834;2022-07-06T05:00:49;99775.95;;;31.61;38.75
50592;BME280;36548;50.506;30.834;2022-07-06T05:02:05;99771.33;;;31.67;38.58
50592;BME280;36548;50.506;30.834;2022-07-06T05:03:20;99763.01;;;31.84;37.51
50592;BME280;36548;50.506;30.834;2022-07-06T05:04:31;99767.63;;;31.78;37.43
50592;BME280;36548;50.506;30.834;2022-07-06T05:05:42;99772.09;;;31.79;37.42
50592;BME280;36548;50.506;30.834;2022-07-06T05:06:58;99764.28;;;31.93;37.04
50592;BME280;36548;50.506;30.834;2022-07-06T05:08:10;99766.04;;;31.82;36.35
50592;BME280;36548;50.506;30.834;2022-07-06T05:09:25;99762.34;;;31.93;36.06
50592;BME280;36548;50.506;30.834;2022-07-06T05:10:36;99770.41;;;31.78;36.17
50592;BME280;36548;50.506;30.834;2022-07-06T05:12:05;99767.38;;;31.79;36.59
50592;BME280;36548;50.506;30.834;2022-07-06T05:13:21;99763.77;;;31.96;36.88
50592;BME280;36548;50.506;30.834;2022-07-06T05:14:32;99767.80;;;31.88;36.90
50592;BME280;36548;50.506;30.834;2022-07-06T05:15:47;99756.36;;;32.02;36.63
50592;BME280;36548;50.506;30.834;2022-07-06T05:16:58;99762.84;;;31.90;36.39
50592;BME280;36548;50.506;30.834;2022-07-06T05:18:28;99765.11;;;31.93;36.60
50592;BME280;36548;50.506;30.834;2022-07-06T05:19:44;99762.70;;;32.14;36.69
50592;BME280;36548;50.506;30.834;2022-07-06T05:20:58;99762.84;;;32.07;36.36
50592;BME280;36548;50.506;30.834;2022-07-06T05:22:08;99762.32;;;32.10;36.28
50592;BME280;36548;50.506;30.834;2022-07-06T05:23:24;99756.28;;;32.31;36.08
50592;BME280;36548;50.506;30.834;2022-07-06T05:24:35;99754.51;;;32.24;35.78
50592;BME280;36548;50.506;30.834;2022-07-06T05:25:46;99756.55;;;32.29;35.45
50592;BME280;36548;50.506;30.834;2022-07-06T05:26:59;99753.77;;;32.29;35.24
50592;BME280;36548;50.506;30.834;2022-07-06T05:28:09;99755.77;;;32.34;35.20
50592;BME280;36548;50.506;30.834;2022-07-06T05:29:22;99755.50;;;32.35;35.11
50592;BME280;36548;50.506;30.834;2022-07-06T05:30:34;99751.56;;;32.31;34.76
50592;BME280;36548;50.506;30.834;2022-07-06T05:31:49;99744.66;;;32.34;35.04
50592;BME280;36548;50.506;30.834;2022-07-06T05:33:00;99750.30;;;32.22;34.81
50592;BME280;36548;50.506;30.834;2022-07-06T05:34:11;99749.13;;;32.18;35.51
50592;BME280;36548;50.506;30.834;2022-07-06T05:35:22;99753.85;;;32.17;35.33
50592;BME280;36548;50.506;30.834;2022-07-06T05:36:37;99751.16;;;32.22;35.33
50592;BME280;36548;50.506;30.834;2022-07-06T05:37:52;99746.66;;;32.38;35.82
50592;BME280;36548;50.506;30.834;2022-07-06T05:39:04;99749.95;;;32.35;35.64
50592;BME280;36548;50.506;30.834;2022-07-06T05:40:17;99743.95;;;32.43;35.33
50592;BME280;36548;50.506;30.834;2022-07-06T05:41:52;99736.47;;;32.66;35.15
50592;BME280;36548;50.506;30.834;2022-07-06T05:43:03;99741.65;;;32.57;34.95
50592;BME280;36548;50.506;30.834;2022-07-06T05:44:13;99739.20;;;32.61;34.89
50592;BME280;36548;50.506;30.834;2022-07-06T05:45:31;99732.83;;;32.83;35.03
50592;BME280;36548;50.506;30.834;2022-07-06T05:46:41;99733.09;;;32.81;34.95
50592;BME280;36548;50.506;30.834;2022-07-06T05:47:51;99734.44;;;32.78;34.03
50592;BME280;36548;50.506;30.834;2022-07-06T05:49:26;99731.20;;;32.87;33.82
50592;BME280;36548;50.506;30.834;2022-07-06T05:50:56;99729.22;;;32.82;33.82
50592;BME280;36548;50.506;30.834;2022-07-06T05:52:12;99728.56;;;32.97;33.78
50592;BME280;36548;50.506;30.834;2022-07-06T05:53:24;99725.64;;;32.87;33.92
50592;BME280;36548;50.506;30.834;2022-07-06T05:54:50;99731.47;;;32.85;32.97
50592;BME280;36548;50.506;30.834;2022-07-06T05:56:00;99721.70;;;32.83;32.62
50592;BME280;36548;50.506;30.834;2022-07-06T05:57:16;99722.34;;;32.90;32.79
50592;BME280;36548;50.506;30.834;2022-07-06T05:58:28;99726.89;;;32.74;32.62
50592;BME280;36548;50.506;30.834;2022-07-06T05:59:40;99721.59;;;32.72;32.82
50592;BME280;36548;50.506;30.834;2022-07-06T06:00:53;99723.17;;;32.68;32.55
50592;BME280;36548;50.506;30.834;2022-07-06T06:02:08;99716.30;;;32.71;32.79
50592;BME280;36548;50.506;30.834;2022-07-06T06:03:18;99724.72;;;32.59;32.58
50592;BME280;36548;50.506;30.834;2022-07-06T06:04:33;99720.40;;;32.68;32.98
50592;BME280;36548;50.506;30.834;2022-07-06T06:05:43;99714.20;;;32.61;32.86
50592;BME280;36548;50.506;30.834;2022-07-06T06:06:56;99723.62;;;32.60;32.65
50592;BME280;36548;50.506;30.834;2022-07-06T06:08:06;99713.68;;;32.64;32.39
50592;BME280;36548;50.506;30.834;2022-07-06T06:09:18;99715.93;;;32.67;32.26
50592;BME280;36548;50.506;30.834;2022-07-06T06:10:33;99711.68;;;32.82;32.39
50592;BME280;36548;50.506;30.834;2022-07-06T06:11:46;99707.70;;;32.72;32.64
50592;BME280;36548;50.506;30.834;2022-07-06T06:12:57;99707.17;;;32.75;32.98
50592;BME280;36548;50.506;30.834;2022-07-06T06:14:07;99708.00;;;32.76;32.72
50592;BME280;36548;50.506;30.834;2022-07-06T06:15:17;99704.95;;;32.77;32.80
50592;BME280;36548;50.506;30.834;2022-07-06T06:16:28;99700.06;;;32.85;32.60
50592;BME280;36548;50.506;30.834;2022-07-06T06:17:41;99704.83;;;32.89;32.55
50592;BME280;36548;50.506;30.834;2022-07-06T06:18:52;99701.86;;;32.96;32.89
50592;BME280;36548;50.506;30.834;2022-07-06T06:20:02;99700.27;;;33.05;32.82
50592;BME280;36548;50.506;30.834;2022-07-06T06:21:13;99694.50;;;33.12;32.15
50592;BME280;36548;50.506;30.834;2022-07-06T06:22:22;99700.33;;;33.10;31.50
50592;BME280;36548;50.506;30.834;2022-07-06T06:23:33;99701.19;;;33.11;31.71
50592;BME280;36548;50.506;30.834;2022-07-06T06:24:42;99701.19;;;33.11;31.63
50592;BME280;36548;50.506;30.834;2022-07-06T06:25:53;99696.09;;;33.03;30.97
50592;BME280;36548;50.506;30.834;2022-07-06T06:27:09;99697.45;;;33.00;31.58